createdAt,value
2022-12-18T00:00:12.082Z,56.30
2022-12-18T00:03:03.544Z,54.90
2022-12-18T00:05:33.998Z,62.00
2022-12-18T00:08:02.827Z,49.90
2022-12-18T00:10:38.235Z,47.20
2022-12-18T00:13:09.885Z,46.10
2022-12-18T00:18:07.844Z,45.20
2022-12-18T00:20:39.553Z,45.70
2022-12-18T00:23:08.645Z,45.00
2022-12-18T00:25:37.932Z,55.10
2022-12-18T00:28:07.143Z,48.00
2022-12-18T00:30:35.597Z,49.30
2022-12-18T00:33:04.397Z,45.20
2022-12-18T00:35:33.119Z,49.80
2022-12-18T00:38:01.766Z,50.70
2022-12-18T00:40:30.321Z,45.70
2022-12-18T00:42:58.808Z,48.80
2022-12-18T00:45:30.842Z,44.50
2022-12-18T00:47:59.403Z,43.90
2022-12-18T00:50:30.601Z,47.60
2022-12-18T00:52:59.197Z,39.40
2022-12-18T00:55:27.765Z,40.90
2022-12-18T00:57:56.285Z,50.20
2022-12-18T01:00:25.265Z,32.00
2022-12-18T01:02:54.026Z,39.40
2022-12-18T01:05:22.763Z,38.70
2022-12-18T01:07:51.407Z,35.40
2022-12-18T01:10:20.503Z,38.20
2022-12-18T01:12:49.317Z,41.40
2022-12-18T01:15:20.260Z,52.10
2022-12-18T01:17:49.002Z,43.10
2022-12-18T01:20:17.667Z,38.50
2022-12-18T01:22:47.614Z,48.40
2022-12-18T01:25:16.216Z,45.30
2022-12-18T01:27:45.594Z,48.60
2022-12-18T01:30:14.676Z,41.80
2022-12-18T01:32:43.304Z,50.60
2022-12-18T01:35:11.812Z,37.00
2022-12-18T01:37:41.194Z,40.50
2022-12-18T01:40:11.393Z,50.50
2022-12-18T01:42:40.255Z,47.40
2022-12-18T01:45:26.310Z,45.30
2022-12-18T01:47:57.023Z,36.90
2022-12-18T01:50:29.272Z,50.20
2022-12-18T01:53:01.917Z,48.30
2022-12-18T01:55:35.809Z,53.70
2022-12-18T01:58:05.483Z,48.70
2022-12-18T02:00:34.516Z,54.20
2022-12-18T02:03:03.168Z,47.80
2022-12-18T02:05:44.357Z,50.30
2022-12-18T02:08:21.399Z,44.60
2022-12-18T02:11:01.080Z,50.20
2022-12-18T02:13:37.476Z,49.60
2022-12-18T02:16:13.318Z,48.40
2022-12-18T02:18:47.840Z,51.60
2022-12-18T02:21:29.443Z,51.50
2022-12-18T02:24:13.430Z,47.10
2022-12-18T02:26:47.596Z,48.10
2022-12-18T02:29:21.377Z,48.50
2022-12-18T02:31:53.315Z,48.70
2022-12-18T02:34:27.192Z,53.90
2022-12-18T02:36:59.955Z,50.70
2022-12-18T02:39:32.107Z,53.00
2022-12-18T02:42:08.298Z,49.80
2022-12-18T02:44:42.956Z,58.30
2022-12-18T02:47:15.592Z,46.60
2022-12-18T02:49:55.352Z,45.40
2022-12-18T02:52:35.697Z,57.00
2022-12-18T02:55:19.905Z,49.40
2022-12-18T02:57:57.521Z,45.90
2022-12-18T03:00:38.093Z,52.40
2022-12-18T03:03:12.226Z,54.20
2022-12-18T03:05:47.984Z,48.00
2022-12-18T03:08:24.941Z,49.80
2022-12-18T03:11:00.614Z,50.90
2022-12-18T03:13:34.606Z,59.80
2022-12-18T03:16:06.805Z,51.50
2022-12-18T03:18:40.647Z,44.10
2022-12-18T03:21:11.524Z,52.60
2022-12-18T03:23:45.370Z,52.40
2022-12-18T03:26:18.857Z,49.80
2022-12-18T03:28:52.020Z,211.60
2022-12-18T03:31:48.433Z,63.60
2022-12-18T03:34:23.650Z,60.10
2022-12-18T03:36:52.247Z,49.80
2022-12-18T03:39:21.784Z,69.80
2022-12-18T03:42:05.816Z,71.30
2022-12-18T03:44:44.895Z,86.80
2022-12-18T03:47:17.817Z,70.10
2022-12-18T03:49:56.901Z,56.10
2022-12-18T03:52:29.969Z,59.80
2022-12-18T03:55:01.002Z,63.50
2022-12-18T03:57:32.338Z,52.90
2022-12-18T04:00:04.909Z,53.60
2022-12-18T04:02:45.894Z,44.70
2022-12-18T04:05:18.136Z,54.00
2022-12-18T04:07:49.933Z,63.10
2022-12-18T04:10:20.399Z,50.80
2022-12-18T04:12:49.407Z,51.50
2022-12-18T04:15:18.548Z,54.10
2022-12-18T04:17:50.413Z,52.60
2022-12-18T04:20:21.724Z,51.30
2022-12-18T04:22:50.462Z,61.30
2022-12-18T04:25:20.335Z,52.10
2022-12-18T04:27:57.947Z,53.90
2022-12-18T04:30:26.510Z,50.90
2022-12-18T04:32:55.236Z,53.80
2022-12-18T04:35:24.326Z,48.40
2022-12-18T04:37:52.888Z,56.40
2022-12-18T04:40:22.181Z,52.10
2022-12-18T04:42:50.736Z,63.10
2022-12-18T04:45:19.328Z,43.40
2022-12-18T04:47:48.228Z,44.80
2022-12-18T04:50:17.236Z,56.00
2022-12-18T04:52:47.845Z,48.30
2022-12-18T04:55:16.671Z,47.00
2022-12-18T04:57:45.159Z,48.80
2022-12-18T05:00:15.518Z,55.30
2022-12-18T05:02:44.182Z,47.80
2022-12-18T05:05:12.995Z,65.20
2022-12-18T05:07:42.379Z,87.60
2022-12-18T05:10:11.304Z,137.00
2022-12-18T05:12:58.374Z,64.00
2022-12-18T05:15:28.817Z,49.90
2022-12-18T05:17:58.404Z,70.80
2022-12-18T05:20:28.293Z,74.80
2022-12-18T05:22:56.823Z,78.10
2022-12-18T05:25:25.469Z,133.60
2022-12-18T05:27:53.958Z,135.50
2022-12-18T05:30:22.816Z,107.90
2022-12-18T05:32:51.345Z,112.90
2022-12-18T05:35:20.503Z,67.00
2022-12-18T05:37:49.014Z,53.10
2022-12-18T05:40:17.951Z,51.80
2022-12-18T05:42:46.521Z,50.80
2022-12-18T05:45:15.337Z,42.30
2022-12-18T05:47:43.898Z,42.30
2022-12-18T05:50:12.525Z,56.40
2022-12-18T05:52:41.113Z,47.30
2022-12-18T05:55:10.447Z,49.30
2022-12-18T05:57:38.962Z,46.90
2022-12-18T06:00:10.088Z,46.60
2022-12-18T06:02:41.028Z,46.00
2022-12-18T06:05:11.283Z,46.60
2022-12-18T06:07:40.100Z,39.60
2022-12-18T06:10:09.611Z,49.40
2022-12-18T06:12:38.172Z,51.50
2022-12-18T06:15:09.549Z,47.00
2022-12-18T06:17:38.402Z,44.80
2022-12-18T06:20:08.823Z,45.60
2022-12-18T06:22:37.360Z,51.20
2022-12-18T06:25:08.197Z,46.20
2022-12-18T06:27:36.876Z,64.20
2022-12-18T06:30:07.521Z,65.80
2022-12-18T06:32:36.058Z,72.50
2022-12-18T06:35:06.254Z,65.30
2022-12-18T06:37:34.911Z,57.50
2022-12-18T06:40:03.817Z,63.20
2022-12-18T06:42:32.723Z,47.20
2022-12-18T06:45:01.298Z,54.60
2022-12-18T06:47:29.961Z,55.20
2022-12-18T06:49:58.596Z,49.10
2022-12-18T06:52:27.223Z,50.00
2022-12-18T06:54:56.074Z,53.70
2022-12-18T06:57:24.637Z,42.90
2022-12-18T06:59:53.254Z,52.50
2022-12-18T07:02:21.929Z,50.40
2022-12-18T07:04:50.857Z,44.30
2022-12-18T07:07:19.459Z,42.60
2022-12-18T07:09:48.055Z,46.00
2022-12-18T07:12:16.728Z,45.20
2022-12-18T07:14:45.309Z,51.20
2022-12-18T07:17:14.073Z,46.70
2022-12-18T07:19:42.750Z,49.10
2022-12-18T07:22:11.614Z,45.90
2022-12-18T07:24:40.198Z,46.80
2022-12-18T07:27:08.757Z,50.70
2022-12-18T07:29:38.786Z,46.00
2022-12-18T07:32:08.817Z,58.10
2022-12-18T07:34:37.596Z,54.00
2022-12-18T07:37:06.212Z,57.70
2022-12-18T07:39:35.229Z,52.40
2022-12-18T07:42:22.192Z,49.30
2022-12-18T07:44:51.795Z,54.80
2022-12-18T07:47:21.072Z,51.10
2022-12-18T07:49:49.908Z,46.20
2022-12-18T07:52:24.225Z,48.80
2022-12-18T07:54:54.496Z,45.60
2022-12-18T07:57:48.764Z,44.20
2022-12-18T08:00:14.618Z,52.30
2022-12-18T08:02:43.561Z,38.80
2022-12-18T08:05:12.471Z,48.60
2022-12-18T08:07:43.845Z,65.90
2022-12-18T08:10:12.842Z,46.00
2022-12-18T08:12:41.507Z,57.10
2022-12-18T08:15:11.530Z,52.20
2022-12-18T08:17:40.479Z,52.60
2022-12-18T08:20:11.295Z,56.40
2022-12-18T08:22:39.977Z,40.60
2022-12-18T08:25:10.703Z,50.10
2022-12-18T08:27:39.867Z,46.10
2022-12-18T08:30:11.686Z,47.50
2022-12-18T08:32:40.360Z,48.40
2022-12-18T08:35:18.752Z,54.60
2022-12-18T08:37:47.644Z,103.50
2022-12-18T08:40:16.698Z,58.60
2022-12-18T08:43:03.724Z,73.20
2022-12-18T08:45:32.893Z,63.70
2022-12-18T08:48:01.999Z,67.40
2022-12-18T08:50:30.608Z,79.30
2022-12-18T08:52:59.392Z,51.50
2022-12-18T08:55:28.243Z,53.00
2022-12-18T08:57:56.839Z,44.70
2022-12-18T09:00:25.578Z,57.90
2022-12-18T09:02:54.254Z,62.10
2022-12-18T09:05:23.672Z,56.70
2022-12-18T09:07:52.793Z,62.80
2022-12-18T09:10:21.411Z,60.90
2022-12-18T09:12:51.022Z,52.10
2022-12-18T09:15:19.680Z,51.40
2022-12-18T09:17:50.311Z,56.20
2022-12-18T09:20:19.488Z,96.50
2022-12-18T09:22:48.050Z,169.60
2022-12-18T09:25:16.949Z,72.20
2022-12-18T09:27:48.718Z,198.20
2022-12-18T09:30:17.660Z,92.30
2022-12-18T09:32:46.280Z,101.30
2022-12-18T09:35:17.494Z,411.70
2022-12-18T09:37:46.507Z,302.00
2022-12-18T09:40:16.929Z,136.80
2022-12-18T09:42:52.884Z,114.40
2022-12-18T09:45:22.355Z,86.80
2022-12-18T09:47:53.312Z,114.20
2022-12-18T09:50:27.934Z,102.40
2022-12-18T09:53:00.444Z,69.30
2022-12-18T09:55:37.520Z,53.50
2022-12-18T09:58:13.913Z,52.10
2022-12-18T10:00:46.072Z,52.60
2022-12-18T10:03:16.287Z,53.60
2022-12-18T10:05:54.294Z,55.90
2022-12-18T10:08:33.440Z,57.90
2022-12-18T10:11:16.721Z,48.80
2022-12-18T10:13:50.503Z,59.60
2022-12-18T10:16:26.255Z,61.30
2022-12-18T10:19:11.329Z,51.20
2022-12-18T10:21:46.625Z,55.80
2022-12-18T10:24:22.962Z,66.10
2022-12-18T10:26:55.378Z,59.90
2022-12-18T10:31:52.059Z,56.20
2022-12-18T10:34:20.874Z,58.90
2022-12-18T10:36:50.012Z,53.90
2022-12-18T10:39:20.633Z,50.10
2022-12-18T10:41:49.296Z,56.30
2022-12-18T10:44:21.450Z,82.10
2022-12-18T10:49:26.617Z,71.30
2022-12-18T10:52:08.212Z,60.90
2022-12-18T10:54:39.416Z,67.30
2022-12-18T10:57:18.777Z,71.50
2022-12-18T10:59:56.987Z,68.30
2022-12-18T11:02:35.726Z,69.30
2022-12-18T11:05:24.404Z,78.90
2022-12-18T11:07:54.402Z,66.80
2022-12-18T11:10:27.164Z,60.90
2022-12-18T11:13:09.702Z,99.80
2022-12-18T11:15:41.171Z,88.40
2022-12-18T11:18:20.359Z,58.70
2022-12-18T11:20:58.484Z,58.50
2022-12-18T11:23:28.379Z,64.60
2022-12-18T11:25:59.885Z,75.10
2022-12-18T11:28:35.426Z,59.90
2022-12-18T11:31:25.672Z,60.70
2022-12-18T11:34:28.180Z,62.40
2022-12-18T11:36:54.425Z,59.70
2022-12-18T11:39:37.418Z,62.30
2022-12-18T11:42:15.264Z,53.20
2022-12-18T11:44:49.405Z,46.90
2022-12-18T11:47:26.350Z,70.50
2022-12-18T11:49:57.698Z,61.00
2022-12-18T11:52:32.650Z,60.50
2022-12-18T11:55:09.579Z,53.60
2022-12-18T11:57:45.901Z,52.10
2022-12-18T12:00:18.778Z,60.80
2022-12-18T12:03:24.373Z,49.10
2022-12-18T12:06:04.245Z,59.30
2022-12-18T12:08:44.215Z,51.00
2022-12-18T12:11:23.426Z,61.70
2022-12-18T12:14:16.510Z,63.40
2022-12-18T12:16:52.953Z,63.30
2022-12-18T12:19:35.925Z,66.00
2022-12-18T12:22:11.701Z,72.50
2022-12-18T12:24:50.358Z,69.60
2022-12-18T12:27:27.971Z,84.20
2022-12-18T12:30:05.174Z,92.80
2022-12-18T12:32:51.373Z,115.00
2022-12-18T12:35:38.124Z,129.00
2022-12-18T12:38:11.964Z,112.90
2022-12-18T12:40:53.837Z,118.50
2022-12-18T12:43:31.892Z,120.20
2022-12-18T12:46:04.419Z,139.90
2022-12-18T12:48:43.390Z,128.80
2022-12-18T12:51:20.136Z,106.60
2022-12-18T12:53:50.427Z,128.50
2022-12-18T12:56:21.582Z,129.20
2022-12-18T12:59:03.244Z,118.40
2022-12-18T13:01:41.936Z,102.20
2022-12-18T13:04:22.903Z,129.40
2022-12-18T13:07:02.091Z,98.60
2022-12-18T13:09:32.617Z,123.00
2022-12-18T13:12:29.889Z,119.30
2022-12-18T13:15:21.936Z,123.60
2022-12-18T13:18:03.393Z,125.70
2022-12-18T13:20:36.881Z,129.50
2022-12-18T13:23:28.701Z,156.20
2022-12-18T13:25:58.337Z,139.40
2022-12-18T13:28:53.999Z,135.10
2022-12-18T13:32:09.879Z,162.00
2022-12-18T13:34:42.097Z,150.00
2022-12-18T13:37:41.145Z,142.10
2022-12-18T13:40:54.960Z,122.20
2022-12-18T13:43:29.697Z,131.90
2022-12-18T13:46:03.644Z,148.40
2022-12-18T13:48:36.231Z,144.60
2022-12-18T13:51:08.550Z,125.70
2022-12-18T13:53:43.559Z,151.70
2022-12-18T13:56:17.387Z,148.10
2022-12-18T13:59:07.247Z,141.10
2022-12-18T14:01:42.346Z,117.60
2022-12-18T14:04:13.316Z,136.80
2022-12-18T14:06:43.473Z,134.90
2022-12-18T14:09:20.309Z,128.00
2022-12-18T14:12:35.513Z,133.60
2022-12-18T14:15:07.037Z,120.00
2022-12-18T14:17:36.985Z,130.70
2022-12-18T14:20:15.523Z,124.30
2022-12-18T14:22:45.998Z,141.00
2022-12-18T14:25:20.350Z,144.00
2022-12-18T14:27:51.410Z,188.40
2022-12-18T14:30:29.548Z,175.30
2022-12-18T14:33:06.154Z,158.00
2022-12-18T14:35:36.514Z,114.90
2022-12-18T14:38:20.592Z,134.50
2022-12-18T14:40:54.434Z,147.20
2022-12-18T14:43:23.305Z,166.00
2022-12-18T14:45:52.959Z,135.40
2022-12-18T14:48:31.888Z,128.50
2022-12-18T14:51:04.233Z,125.30
2022-12-18T14:53:46.342Z,128.70
2022-12-18T14:56:21.922Z,127.30
2022-12-18T14:58:53.847Z,141.20
2022-12-18T15:01:25.874Z,150.00
2022-12-18T15:06:30.554Z,138.40
2022-12-18T15:09:00.144Z,156.60
2022-12-18T15:11:33.194Z,146.60
2022-12-18T15:14:22.534Z,161.20
2022-12-18T15:16:54.475Z,165.60
2022-12-18T15:19:29.717Z,148.00
2022-12-18T15:22:04.421Z,211.00
2022-12-18T15:24:36.230Z,251.00
2022-12-18T15:27:05.375Z,226.90
2022-12-18T15:29:33.956Z,217.20
2022-12-18T15:32:06.036Z,214.80
2022-12-18T15:34:35.056Z,127.70
2022-12-18T15:37:03.750Z,166.00
2022-12-18T15:39:32.567Z,126.60
2022-12-18T15:42:20.435Z,78.90
2022-12-18T15:44:49.177Z,152.30
2022-12-18T15:47:17.648Z,347.50
2022-12-18T15:49:46.585Z,323.40
2022-12-18T15:52:26.193Z,261.50
2022-12-18T15:55:13.094Z,284.90
2022-12-18T15:57:41.927Z,408.40
2022-12-18T16:00:14.653Z,407.00
2022-12-18T16:02:43.512Z,361.10
2022-12-18T16:05:18.153Z,376.10
2022-12-18T16:07:47.252Z,476.80
2022-12-18T16:10:16.301Z,500.60
2022-12-18T16:12:45.733Z,489.50
2022-12-18T16:15:19.745Z,488.80
2022-12-18T16:17:53.075Z,531.00
2022-12-18T16:20:23.242Z,472.40
2022-12-18T16:22:53.358Z,481.80
2022-12-18T16:25:23.960Z,439.50
2022-12-18T16:27:55.377Z,443.40
2022-12-18T16:30:26.670Z,402.70
2022-12-18T16:32:56.251Z,314.90
2022-12-18T16:35:26.386Z,318.80
2022-12-18T16:37:55.156Z,276.80
2022-12-18T16:40:23.811Z,276.30
2022-12-18T16:42:52.535Z,242.20
2022-12-18T16:45:21.343Z,232.30
2022-12-18T16:48:09.771Z,211.00
2022-12-18T16:50:38.402Z,216.50
2022-12-18T16:53:06.860Z,203.40
2022-12-18T16:55:35.559Z,234.40
2022-12-18T16:58:05.190Z,303.80
2022-12-18T17:00:34.154Z,361.80
2022-12-18T17:03:02.999Z,368.80
2022-12-18T17:05:34.043Z,243.20
2022-12-18T17:08:02.707Z,268.80
2022-12-18T17:10:31.386Z,314.60
2022-12-18T17:13:00.691Z,308.90
2022-12-18T17:15:29.389Z,327.40
2022-12-18T17:17:57.910Z,343.00
2022-12-18T17:20:26.615Z,315.10
2022-12-18T17:23:00.346Z,290.90
2022-12-18T17:25:30.415Z,250.70
2022-12-18T17:27:58.889Z,263.70
2022-12-18T17:30:27.468Z,233.60
2022-12-18T17:32:56.358Z,225.10
2022-12-18T17:35:25.398Z,187.00
2022-12-18T17:37:54.553Z,195.90
2022-12-18T17:40:24.606Z,141.80
2022-12-18T17:42:53.966Z,166.60
2022-12-18T17:45:24.516Z,165.20
2022-12-18T17:47:59.860Z,143.80
2022-12-18T17:50:28.773Z,135.90
2022-12-18T17:52:57.988Z,138.40
2022-12-18T17:55:28.089Z,145.30
2022-12-18T17:57:57.067Z,181.40
2022-12-18T18:00:26.973Z,190.20
2022-12-18T18:02:56.748Z,339.60
2022-12-18T18:05:25.815Z,351.20
2022-12-18T18:07:56.503Z,327.70
2022-12-18T18:10:25.137Z,361.30
2022-12-18T18:13:12.564Z,349.00
2022-12-18T18:15:42.778Z,228.90
2022-12-18T18:18:11.380Z,284.00
2022-12-18T18:20:41.216Z,223.40
2022-12-18T18:23:11.189Z,262.20
2022-12-18T18:25:39.877Z,278.40
2022-12-18T18:28:09.146Z,249.50
2022-12-18T18:30:39.108Z,274.90
2022-12-18T18:33:12.053Z,252.40
2022-12-18T18:35:58.608Z,275.90
2022-12-18T18:38:28.446Z,242.60
2022-12-18T18:41:01.073Z,196.80
2022-12-18T18:43:30.865Z,188.80
2022-12-18T18:46:04.181Z,182.40
2022-12-18T18:48:35.520Z,164.90
2022-12-18T18:51:08.244Z,153.20
2022-12-18T18:53:42.467Z,140.20
2022-12-18T18:59:05.176Z,182.60
2022-12-18T19:01:34.711Z,176.50
2022-12-18T19:04:03.656Z,189.60
2022-12-18T19:06:32.573Z,197.90
2022-12-18T19:09:03.718Z,156.70
2022-12-18T19:11:51.252Z,166.90
2022-12-18T19:14:21.373Z,159.70
2022-12-18T19:16:50.865Z,164.20
2022-12-18T19:19:23.072Z,156.80
2022-12-18T19:24:22.531Z,136.50
2022-12-18T19:26:54.885Z,147.70
2022-12-18T19:29:27.772Z,131.20
2022-12-18T19:31:56.574Z,153.70
2022-12-18T19:34:26.214Z,169.10
2022-12-18T19:36:59.900Z,247.90
2022-12-18T19:39:29.051Z,262.80
2022-12-18T19:41:58.919Z,212.40
2022-12-18T19:44:28.496Z,209.50
2022-12-18T19:46:57.230Z,241.10
2022-12-18T19:49:25.802Z,261.40
2022-12-18T19:51:54.493Z,266.20
2022-12-18T19:54:23.144Z,243.70
2022-12-18T19:56:52.787Z,243.10
2022-12-18T19:59:22.279Z,280.30
2022-12-18T20:01:53.768Z,255.00
2022-12-18T20:04:24.205Z,230.30
2022-12-18T20:06:54.367Z,262.30
2022-12-18T20:09:25.844Z,340.90
2022-12-18T20:11:55.347Z,302.00
2022-12-18T20:14:24.199Z,288.70
2022-12-18T20:16:53.693Z,261.50
2022-12-18T20:19:23.576Z,254.30
2022-12-18T20:21:53.501Z,260.80
2022-12-18T20:24:24.657Z,233.10
2022-12-18T20:26:54.541Z,200.30
2022-12-18T20:29:23.369Z,191.40
2022-12-18T20:31:52.242Z,176.80
2022-12-18T20:34:21.560Z,173.40
2022-12-18T20:36:50.166Z,209.50
2022-12-18T20:39:20.008Z,214.40
2022-12-18T20:41:50.367Z,365.10
2022-12-18T20:44:23.219Z,297.90
2022-12-18T20:46:56.118Z,312.60
2022-12-18T20:49:26.737Z,273.30
2022-12-18T20:51:57.383Z,276.30
2022-12-18T20:54:28.234Z,271.40
2022-12-18T20:56:57.250Z,241.00
2022-12-18T20:59:26.382Z,222.20
2022-12-18T21:01:58.534Z,201.80
2022-12-18T21:04:27.249Z,224.20
2022-12-18T21:07:02.342Z,211.50
2022-12-18T21:09:36.924Z,231.30
2022-12-18T21:12:33.440Z,296.20
2022-12-18T21:15:12.115Z,316.00
2022-12-18T21:17:45.166Z,232.90
2022-12-18T21:20:17.780Z,238.00
2022-12-18T21:22:48.687Z,287.60
2022-12-18T21:25:17.678Z,260.40
2022-12-18T21:27:46.195Z,229.00
2022-12-18T21:30:16.100Z,257.80
2022-12-18T21:32:44.843Z,233.70
2022-12-18T21:35:13.498Z,241.90
2022-12-18T21:37:42.007Z,175.60
2022-12-18T21:40:12.499Z,193.90
2022-12-18T21:43:01.629Z,270.50
2022-12-18T21:45:30.274Z,160.20
2022-12-18T21:47:58.827Z,163.30
2022-12-18T21:50:27.389Z,124.00
2022-12-18T21:52:56.040Z,99.20
2022-12-18T21:55:24.700Z,98.10
2022-12-18T21:57:54.231Z,91.10
2022-12-18T22:00:23.207Z,88.70
2022-12-18T22:02:51.865Z,103.80
2022-12-18T22:05:40.531Z,112.10
2022-12-18T22:08:09.840Z,108.70
2022-12-18T22:10:39.527Z,108.00
2022-12-18T22:13:08.254Z,103.90
2022-12-18T22:15:36.829Z,112.30
2022-12-18T22:18:05.574Z,138.50
2022-12-18T22:20:34.193Z,120.60
2022-12-18T22:23:05.730Z,113.50
2022-12-18T22:25:35.302Z,121.40
2022-12-18T22:28:25.286Z,123.50
2022-12-18T22:30:57.685Z,126.60
2022-12-18T22:33:28.832Z,121.60
2022-12-18T22:35:58.608Z,132.50
2022-12-18T22:38:27.284Z,130.10
2022-12-18T22:40:56.038Z,139.30
2022-12-18T22:43:24.733Z,122.80
2022-12-18T22:45:53.393Z,117.10
2022-12-18T22:48:22.473Z,126.80
2022-12-18T22:50:51.087Z,127.30
2022-12-18T22:53:23.277Z,123.80
2022-12-18T22:55:51.845Z,129.10
2022-12-18T22:58:21.396Z,114.30
2022-12-18T23:00:50.233Z,105.90
2022-12-18T23:03:19.104Z,108.70
2022-12-18T23:05:48.017Z,109.90
2022-12-18T23:08:16.726Z,118.80
2022-12-18T23:10:45.321Z,107.60
2022-12-18T23:13:14.151Z,88.50
2022-12-18T23:15:46.729Z,102.80
2022-12-18T23:18:15.610Z,112.90
2022-12-18T23:20:44.187Z,97.50
2022-12-18T23:23:13.047Z,105.10
2022-12-18T23:25:43.342Z,102.90
2022-12-18T23:28:11.993Z,95.40
2022-12-18T23:30:40.580Z,88.60
2022-12-18T23:33:09.361Z,90.50
2022-12-18T23:35:39.020Z,101.10
2022-12-18T23:38:07.762Z,98.80
2022-12-18T23:40:36.477Z,127.00
2022-12-18T23:43:05.208Z,123.10
2022-12-18T23:45:38.023Z,131.80
2022-12-18T23:48:06.679Z,100.10
2022-12-18T23:50:36.093Z,88.50
2022-12-18T23:53:05.821Z,90.50
2022-12-18T23:55:39.367Z,84.10
2022-12-18T23:58:14.767Z,80.50
